sensor_id;sensor_type;location;lat;lon;timestamp;temperature;humidity
27376;DHT22;14844;51.302;6.354;2022-10-22T00:00:30;11.80;99.90
27376;DHT22;14844;51.302;6.354;2022-10-22T00:02:56;11.80;99.90
27376;DHT22;14844;51.302;6.354;2022-10-22T00:05:21;11.80;99.90
27376;DHT22;14844;51.302;6.354;2022-10-22T00:07:47;11.80;99.90
27376;DHT22;14844;51.302;6.354;2022-10-22T00:10:13;11.80;99.90
27376;DHT22;14844;51.302;6.354;2022-10-22T00:12:38;11.70;99.90
27376;DHT22;14844;51.302;6.354;2022-10-22T00:15:05;11.70;99.90
27376;DHT22;14844;51.302;6.354;2022-10-22T00:17:31;11.70;99.90
27376;DHT22;14844;51.302;6.354;2022-10-22T00:19:57;11.70;99.90
27376;DHT22;14844;51.302;6.354;2022-10-22T00:22:23;11.70;99.90
27376;DHT22;14844;51.302;6.354;2022-10-22T00:24:48;11.70;99.90
27376;DHT22;14844;51.302;6.354;2022-10-22T00:27:14;11.70;99.90
27376;DHT22;14844;51.302;6.354;2022-10-22T00:29:40;11.70;99.90
27376;DHT22;14844;51.302;6.354;2022-10-22T00:32:06;11.60;99.90
27376;DHT22;14844;51.302;6.354;2022-10-22T00:34:32;11.60;99.90
27376;DHT22;14844;51.302;6.354;2022-10-22T00:36:58;11.60;99.90
27376;DHT22;14844;51.302;6.354;2022-10-22T00:39:26;11.60;99.90
27376;DHT22;14844;51.302;6.354;2022-10-22T00:41:56;11.60;99.90
27376;DHT22;14844;51.302;6.354;2022-10-22T00:47:26;11.60;99.90
27376;DHT22;14844;51.302;6.354;2022-10-22T00:49:53;11.60;99.90
27376;DHT22;14844;51.302;6.354;2022-10-22T00:52:20;11.60;99.90
27376;DHT22;14844;51.302;6.354;2022-10-22T00:54:47;11.60;99.90
27376;DHT22;14844;51.302;6.354;2022-10-22T00:57:14;11.60;99.90
27376;DHT22;14844;51.302;6.354;2022-10-22T00:59:46;11.60;99.90
27376;DHT22;14844;51.302;6.354;2022-10-22T01:02:12;11.60;99.90
27376;DHT22;14844;51.302;6.354;2022-10-22T01:04:39;11.60;99.90
27376;DHT22;14844;51.302;6.354;2022-10-22T01:07:11;11.60;99.90
27376;DHT22;14844;51.302;6.354;2022-10-22T01:15:49;11.50;99.90
27376;DHT22;14844;51.302;6.354;2022-10-22T01:18:29;11.50;99.90
27376;DHT22;14844;51.302;6.354;2022-10-22T01:21:31;11.50;99.90
27376;DHT22;14844;51.302;6.354;2022-10-22T01:24:23;11.50;99.90
27376;DHT22;14844;51.302;6.354;2022-10-22T01:29:32;11.60;99.90
27376;DHT22;14844;51.302;6.354;2022-10-22T01:32:08;11.50;99.90
27376;DHT22;14844;51.302;6.354;2022-10-22T01:34:37;11.50;99.90
27376;DHT22;14844;51.302;6.354;2022-10-22T01:37:04;11.50;99.90
27376;DHT22;14844;51.302;6.354;2022-10-22T01:39:33;11.50;99.90
27376;DHT22;14844;51.302;6.354;2022-10-22T01:42:00;11.50;99.90
27376;DHT22;14844;51.302;6.354;2022-10-22T01:44:29;11.50;99.90
27376;DHT22;14844;51.302;6.354;2022-10-22T01:47:13;11.50;99.90
27376;DHT22;14844;51.302;6.354;2022-10-22T01:49:48;11.40;99.90
27376;DHT22;14844;51.302;6.354;2022-10-22T02:00:45;11.50;99.90
27376;DHT22;14844;51.302;6.354;2022-10-22T02:03:22;11.50;99.90
27376;DHT22;14844;51.302;6.354;2022-10-22T02:05:54;11.60;99.90
27376;DHT22;14844;51.302;6.354;2022-10-22T02:08:24;11.60;99.90
27376;DHT22;14844;51.302;6.354;2022-10-22T02:10:52;11.60;99.90
27376;DHT22;14844;51.302;6.354;2022-10-22T02:13:34;11.60;99.90
27376;DHT22;14844;51.302;6.354;2022-10-22T02:16:04;11.50;99.90
27376;DHT22;14844;51.302;6.354;2022-10-22T02:18:41;11.50;99.90
27376;DHT22;14844;51.302;6.354;2022-10-22T02:21:11;11.50;99.90
27376;DHT22;14844;51.302;6.354;2022-10-22T02:23:40;11.50;99.90
27376;DHT22;14844;51.302;6.354;2022-10-22T02:26:24;11.40;99.90
27376;DHT22;14844;51.302;6.354;2022-10-22T02:29:03;11.30;99.90
27376;DHT22;14844;51.302;6.354;2022-10-22T02:31:34;11.20;99.90
27376;DHT22;14844;51.302;6.354;2022-10-22T02:34:06;11.20;99.90
27376;DHT22;14844;51.302;6.354;2022-10-22T02:36:36;11.20;99.90
27376;DHT22;14844;51.302;6.354;2022-10-22T02:39:03;11.10;99.90
27376;DHT22;14844;51.302;6.354;2022-10-22T02:41:34;11.20;99.90
27376;DHT22;14844;51.302;6.354;2022-10-22T02:44:07;11.10;99.90
27376;DHT22;14844;51.302;6.354;2022-10-22T02:46:33;11.10;99.90
27376;DHT22;14844;51.302;6.354;2022-10-22T02:48:59;11.10;99.90
27376;DHT22;14844;51.302;6.354;2022-10-22T02:51:27;11.10;99.90
27376;DHT22;14844;51.302;6.354;2022-10-22T02:53:53;11.20;99.90
27376;DHT22;14844;51.302;6.354;2022-10-22T02:56:20;11.10;99.90
27376;DHT22;14844;51.302;6.354;2022-10-22T02:58:46;11.10;99.90
27376;DHT22;14844;51.302;6.354;2022-10-22T03:01:12;11.10;99.90
27376;DHT22;14844;51.302;6.354;2022-10-22T03:03:40;11.10;99.90
27376;DHT22;14844;51.302;6.354;2022-10-22T03:06:06;11.10;99.90
27376;DHT22;14844;51.302;6.354;2022-10-22T03:08:31;11.10;99.90
27376;DHT22;14844;51.302;6.354;2022-10-22T03:10:57;11.10;99.90
27376;DHT22;14844;51.302;6.354;2022-10-22T03:13:22;11.10;99.90
27376;DHT22;14844;51.302;6.354;2022-10-22T03:15:49;11.10;99.90
27376;DHT22;14844;51.302;6.354;2022-10-22T03:18:15;11.10;99.90
27376;DHT22;14844;51.302;6.354;2022-10-22T03:20:40;11.10;99.90
27376;DHT22;14844;51.302;6.354;2022-10-22T03:23:06;11.10;99.90
27376;DHT22;14844;51.302;6.354;2022-10-22T03:25:32;11.10;99.90
27376;DHT22;14844;51.302;6.354;2022-10-22T03:28:02;11.10;99.90
27376;DHT22;14844;51.302;6.354;2022-10-22T03:30:29;11.10;99.90
27376;DHT22;14844;51.302;6.354;2022-10-22T03:32:55;11.10;99.90
27376;DHT22;14844;51.302;6.354;2022-10-22T03:35:21;11.10;99.90
27376;DHT22;14844;51.302;6.354;2022-10-22T03:37:46;11.10;99.90
27376;DHT22;14844;51.302;6.354;2022-10-22T03:40:12;11.10;99.90
27376;DHT22;14844;51.302;6.354;2022-10-22T03:42:39;11.10;99.90
27376;DHT22;14844;51.302;6.354;2022-10-22T03:45:06;11.10;99.90
27376;DHT22;14844;51.302;6.354;2022-10-22T03:47:32;11.00;99.90
27376;DHT22;14844;51.302;6.354;2022-10-22T03:49:57;11.00;99.90
27376;DHT22;14844;51.302;6.354;2022-10-22T03:52:23;11.00;99.90
27376;DHT22;14844;51.302;6.354;2022-10-22T03:54:49;11.00;99.90
27376;DHT22;14844;51.302;6.354;2022-10-22T03:57:14;11.00;99.90
27376;DHT22;14844;51.302;6.354;2022-10-22T03:59:42;10.90;99.90
27376;DHT22;14844;51.302;6.354;2022-10-22T04:02:09;10.90;99.90
27376;DHT22;14844;51.302;6.354;2022-10-22T04:04:36;10.90;99.90
27376;DHT22;14844;51.302;6.354;2022-10-22T04:07:02;10.80;99.90
27376;DHT22;14844;51.302;6.354;2022-10-22T04:09:30;10.70;99.90
27376;DHT22;14844;51.302;6.354;2022-10-22T04:11:57;10.70;99.90
27376;DHT22;14844;51.302;6.354;2022-10-22T04:14:22;10.70;99.90
27376;DHT22;14844;51.302;6.354;2022-10-22T04:16:48;10.70;99.90
27376;DHT22;14844;51.302;6.354;2022-10-22T04:19:13;10.70;99.90
27376;DHT22;14844;51.302;6.354;2022-10-22T04:21:39;10.70;99.90
27376;DHT22;14844;51.302;6.354;2022-10-22T04:24:05;10.70;99.90
27376;DHT22;14844;51.302;6.354;2022-10-22T04:26:30;10.60;99.90
27376;DHT22;14844;51.302;6.354;2022-10-22T04:28:56;10.60;99.90
27376;DHT22;14844;51.302;6.354;2022-10-22T04:31:23;10.60;99.90
27376;DHT22;14844;51.302;6.354;2022-10-22T04:33:57;10.60;99.90
27376;DHT22;14844;51.302;6.354;2022-10-22T04:36:24;10.60;99.90
27376;DHT22;14844;51.302;6.354;2022-10-22T04:38:55;10.70;99.90
27376;DHT22;14844;51.302;6.354;2022-10-22T04:41:24;10.70;99.90
27376;DHT22;14844;51.302;6.354;2022-10-22T04:43:50;10.90;99.90
27376;DHT22;14844;51.302;6.354;2022-10-22T04:46:17;11.00;99.90
27376;DHT22;14844;51.302;6.354;2022-10-22T04:48:43;11.10;99.90
27376;DHT22;14844;51.302;6.354;2022-10-22T04:51:15;11.20;99.90
27376;DHT22;14844;51.302;6.354;2022-10-22T04:53:41;11.30;99.90
27376;DHT22;14844;51.302;6.354;2022-10-22T04:58:36;11.70;99.90
27376;DHT22;14844;51.302;6.354;2022-10-22T05:01:10;11.80;99.90
27376;DHT22;14844;51.302;6.354;2022-10-22T05:03:35;11.90;99.90
27376;DHT22;14844;51.302;6.354;2022-10-22T05:06:01;12.00;99.90
27376;DHT22;14844;51.302;6.354;2022-10-22T05:08:29;12.10;99.90
27376;DHT22;14844;51.302;6.354;2022-10-22T05:10:58;12.10;99.90
27376;DHT22;14844;51.302;6.354;2022-10-22T05:13:23;12.20;99.90
27376;DHT22;14844;51.302;6.354;2022-10-22T05:15:49;12.30;99.90
27376;DHT22;14844;51.302;6.354;2022-10-22T05:18:15;12.40;99.90
27376;DHT22;14844;51.302;6.354;2022-10-22T05:20:41;12.50;99.90
27376;DHT22;14844;51.302;6.354;2022-10-22T05:23:07;12.40;99.90
27376;DHT22;14844;51.302;6.354;2022-10-22T05:25:37;12.30;99.90
27376;DHT22;14844;51.302;6.354;2022-10-22T05:28:02;12.30;99.90
27376;DHT22;14844;51.302;6.354;2022-10-22T05:30:28;12.30;99.90
27376;DHT22;14844;51.302;6.354;2022-10-22T05:32:53;12.20;99.90
27376;DHT22;14844;51.302;6.354;2022-10-22T05:35:19;12.20;99.90
27376;DHT22;14844;51.302;6.354;2022-10-22T05:37:45;12.20;99.90
27376;DHT22;14844;51.302;6.354;2022-10-22T05:40:11;12.30;99.90
27376;DHT22;14844;51.302;6.354;2022-10-22T05:42:36;12.40;99.90
27376;DHT22;14844;51.302;6.354;2022-10-22T05:45:02;12.50;99.90
27376;DHT22;14844;51.302;6.354;2022-10-22T05:47:29;12.40;99.90
27376;DHT22;14844;51.302;6.354;2022-10-22T05:49:54;12.50;99.90
27376;DHT22;14844;51.302;6.354;2022-10-22T05:52:22;12.60;99.90
27376;DHT22;14844;51.302;6.354;2022-10-22T05:54:47;12.60;99.90
27376;DHT22;14844;51.302;6.354;2022-10-22T05:57:13;12.50;99.90
27376;DHT22;14844;51.302;6.354;2022-10-22T05:59:39;12.60;99.90
27376;DHT22;14844;51.302;6.354;2022-10-22T06:02:05;12.60;99.90
27376;DHT22;14844;51.302;6.354;2022-10-22T06:04:31;12.60;99.90
27376;DHT22;14844;51.302;6.354;2022-10-22T06:06:56;12.60;99.90
27376;DHT22;14844;51.302;6.354;2022-10-22T06:09:31;12.60;99.90
27376;DHT22;14844;51.302;6.354;2022-10-22T06:11:58;12.70;99.90
27376;DHT22;14844;51.302;6.354;2022-10-22T06:14:25;12.70;99.90
27376;DHT22;14844;51.302;6.354;2022-10-22T06:16:51;12.70;99.90
27376;DHT22;14844;51.302;6.354;2022-10-22T06:19:18;12.70;99.90
27376;DHT22;14844;51.302;6.354;2022-10-22T06:21:44;12.70;99.90
27376;DHT22;14844;51.302;6.354;2022-10-22T06:24:11;12.70;99.90
27376;DHT22;14844;51.302;6.354;2022-10-22T06:26:37;12.80;99.90
27376;DHT22;14844;51.302;6.354;2022-10-22T06:29:02;12.80;99.90
27376;DHT22;14844;51.302;6.354;2022-10-22T06:31:28;12.90;99.90
27376;DHT22;14844;51.302;6.354;2022-10-22T06:34:01;12.90;99.90
27376;DHT22;14844;51.302;6.354;2022-10-22T06:36:27;13.00;99.90
27376;DHT22;14844;51.302;6.354;2022-10-22T06:38:53;13.10;99.90
27376;DHT22;14844;51.302;6.354;2022-10-22T06:41:20;13.10;99.90
27376;DHT22;14844;51.302;6.354;2022-10-22T06:43:46;13.20;99.90
27376;DHT22;14844;51.302;6.354;2022-10-22T06:46:14;13.30;99.90
27376;DHT22;14844;51.302;6.354;2022-10-22T06:48:40;13.40;99.90
27376;DHT22;14844;51.302;6.354;2022-10-22T06:51:10;13.40;99.90
27376;DHT22;14844;51.302;6.354;2022-10-22T06:53:37;13.50;99.90
27376;DHT22;14844;51.302;6.354;2022-10-22T06:56:08;13.50;99.90
27376;DHT22;14844;51.302;6.354;2022-10-22T06:58:35;13.50;99.90
27376;DHT22;14844;51.302;6.354;2022-10-22T07:01:05;13.50;99.90
27376;DHT22;14844;51.302;6.354;2022-10-22T07:03:31;13.50;99.90
27376;DHT22;14844;51.302;6.354;2022-10-22T07:06:01;13.40;99.90
27376;DHT22;14844;51.302;6.354;2022-10-22T07:08:27;13.40;99.90
27376;DHT22;14844;51.302;6.354;2022-10-22T07:10:53;13.50;99.90
27376;DHT22;14844;51.302;6.354;2022-10-22T07:13:19;13.50;99.90
27376;DHT22;14844;51.302;6.354;2022-10-22T07:15:44;13.50;99.90
27376;DHT22;14844;51.302;6.354;2022-10-22T07:18:10;13.50;99.90
27376;DHT22;14844;51.302;6.354;2022-10-22T07:20:35;13.40;99.90
27376;DHT22;14844;51.302;6.354;2022-10-22T07:23:01;13.40;99.90
27376;DHT22;14844;51.302;6.354;2022-10-22T07:25:26;13.40;99.90
27376;DHT22;14844;51.302;6.354;2022-10-22T07:27:52;13.40;99.90
27376;DHT22;14844;51.302;6.354;2022-10-22T07:30:17;13.50;99.90
27376;DHT22;14844;51.302;6.354;2022-10-22T07:32:43;13.50;99.90
27376;DHT22;14844;51.302;6.354;2022-10-22T07:35:08;13.60;99.90
27376;DHT22;14844;51.302;6.354;2022-10-22T07:37:34;13.80;99.90
27376;DHT22;14844;51.302;6.354;2022-10-22T07:39:59;14.00;99.90
27376;DHT22;14844;51.302;6.354;2022-10-22T07:42:25;14.20;99.90
27376;DHT22;14844;51.302;6.354;2022-10-22T07:44:50;14.40;99.90
27376;DHT22;14844;51.302;6.354;2022-10-22T07:47:16;14.50;99.90
27376;DHT22;14844;51.302;6.354;2022-10-22T07:49:42;14.60;99.90
27376;DHT22;14844;51.302;6.354;2022-10-22T07:52:07;14.70;99.90
27376;DHT22;14844;51.302;6.354;2022-10-22T07:54:33;14.80;99.90
27376;DHT22;14844;51.302;6.354;2022-10-22T07:56:58;14.90;99.90
27376;DHT22;14844;51.302;6.354;2022-10-22T07:59:24;15.00;99.90
27376;DHT22;14844;51.302;6.354;2022-10-22T08:01:49;15.20;99.90
27376;DHT22;14844;51.302;6.354;2022-10-22T08:04:15;15.20;99.90
27376;DHT22;14844;51.302;6.354;2022-10-22T08:06:40;15.30;99.90
27376;DHT22;14844;51.302;6.354;2022-10-22T08:09:06;15.30;99.90
27376;DHT22;14844;51.302;6.354;2022-10-22T08:11:31;15.30;99.90
27376;DHT22;14844;51.302;6.354;2022-10-22T08:13:58;15.40;99.90
27376;DHT22;14844;51.302;6.354;2022-10-22T08:16:24;15.50;99.90
27376;DHT22;14844;51.302;6.354;2022-10-22T08:18:50;15.60;99.90
27376;DHT22;14844;51.302;6.354;2022-10-22T08:21:15;15.60;99.90
27376;DHT22;14844;51.302;6.354;2022-10-22T08:23:42;15.60;99.90
27376;DHT22;14844;51.302;6.354;2022-10-22T08:26:08;15.50;99.90
27376;DHT22;14844;51.302;6.354;2022-10-22T08:28:34;15.60;99.90
27376;DHT22;14844;51.302;6.354;2022-10-22T08:31:02;15.70;99.90
27376;DHT22;14844;51.302;6.354;2022-10-22T08:33:28;16.00;99.90
27376;DHT22;14844;51.302;6.354;2022-10-22T08:35:54;16.00;99.90
27376;DHT22;14844;51.302;6.354;2022-10-22T08:38:20;16.10;99.90
27376;DHT22;14844;51.302;6.354;2022-10-22T08:40:55;16.30;99.90
27376;DHT22;14844;51.302;6.354;2022-10-22T08:43:49;16.30;99.90
27376;DHT22;14844;51.302;6.354;2022-10-22T08:48:56;16.50;99.90
27376;DHT22;14844;51.302;6.354;2022-10-22T08:51:30;16.60;99.90
27376;DHT22;14844;51.302;6.354;2022-10-22T08:57:33;16.70;99.90
27376;DHT22;14844;51.302;6.354;2022-10-22T09:00:05;16.70;99.90
27376;DHT22;14844;51.302;6.354;2022-10-22T09:02:51;16.70;99.90
27376;DHT22;14844;51.302;6.354;2022-10-22T09:08:11;17.00;99.90
27376;DHT22;14844;51.302;6.354;2022-10-22T09:10:45;16.90;99.90
27376;DHT22;14844;51.302;6.354;2022-10-22T09:13:14;17.10;99.90
27376;DHT22;14844;51.302;6.354;2022-10-22T09:15:40;17.20;99.90
27376;DHT22;14844;51.302;6.354;2022-10-22T09:18:32;17.30;99.90
27376;DHT22;14844;51.302;6.354;2022-10-22T09:26:33;17.40;99.90
27376;DHT22;14844;51.302;6.354;2022-10-22T09:29:00;17.50;99.90
27376;DHT22;14844;51.302;6.354;2022-10-22T09:31:30;17.50;99.90
27376;DHT22;14844;51.302;6.354;2022-10-22T09:33:55;17.50;99.90
27376;DHT22;14844;51.302;6.354;2022-10-22T09:36:23;17.80;99.90
27376;DHT22;14844;51.302;6.354;2022-10-22T09:38:51;17.90;99.90
27376;DHT22;14844;51.302;6.354;2022-10-22T09:41:24;17.80;99.90
27376;DHT22;14844;51.302;6.354;2022-10-22T09:43:50;17.90;99.90
27376;DHT22;14844;51.302;6.354;2022-10-22T09:46:18;17.90;99.90
27376;DHT22;14844;51.302;6.354;2022-10-22T09:48:51;17.90;99.90
27376;DHT22;14844;51.302;6.354;2022-10-22T09:51:26;17.80;99.90
27376;DHT22;14844;51.302;6.354;2022-10-22T09:54:02;17.90;99.90
27376;DHT22;14844;51.302;6.354;2022-10-22T09:56:41;17.90;99.90
27376;DHT22;14844;51.302;6.354;2022-10-22T09:59:17;17.90;99.90
27376;DHT22;14844;51.302;6.354;2022-10-22T10:01:43;18.00;99.90
27376;DHT22;14844;51.302;6.354;2022-10-22T10:04:14;18.00;99.90
27376;DHT22;14844;51.302;6.354;2022-10-22T10:06:42;18.20;99.90
27376;DHT22;14844;51.302;6.354;2022-10-22T10:09:15;18.20;99.90
27376;DHT22;14844;51.302;6.354;2022-10-22T10:12:08;18.00;99.90
27376;DHT22;14844;51.302;6.354;2022-10-22T10:15:11;18.10;99.90
27376;DHT22;14844;51.302;6.354;2022-10-22T10:17:42;18.10;99.90
27376;DHT22;14844;51.302;6.354;2022-10-22T10:31:37;18.40;99.90
27376;DHT22;14844;51.302;6.354;2022-10-22T10:34:13;18.30;99.90
27376;DHT22;14844;51.302;6.354;2022-10-22T10:45:15;18.10;99.90
27376;DHT22;14844;51.302;6.354;2022-10-22T10:50:39;18.40;99.90
27376;DHT22;14844;51.302;6.354;2022-10-22T10:53:25;18.40;99.90
27376;DHT22;14844;51.302;6.354;2022-10-22T10:56:30;18.40;99.90
27376;DHT22;14844;51.302;6.354;2022-10-22T11:07:27;18.60;99.90
27376;DHT22;14844;51.302;6.354;2022-10-22T11:10:22;18.70;99.90
27376;DHT22;14844;51.302;6.354;2022-10-22T11:12:52;18.80;99.90
27376;DHT22;14844;51.302;6.354;2022-10-22T11:15:35;18.60;99.90
27376;DHT22;14844;51.302;6.354;2022-10-22T11:18:29;18.60;99.90
27376;DHT22;14844;51.302;6.354;2022-10-22T11:21:06;18.60;99.90
27376;DHT22;14844;51.302;6.354;2022-10-22T11:23:47;18.40;99.90
27376;DHT22;14844;51.302;6.354;2022-10-22T11:26:35;18.30;99.90
27376;DHT22;14844;51.302;6.354;2022-10-22T11:29:03;18.20;99.90
27376;DHT22;14844;51.302;6.354;2022-10-22T11:31:30;18.10;99.90
27376;DHT22;14844;51.302;6.354;2022-10-22T11:34:16;18.10;99.90
27376;DHT22;14844;51.302;6.354;2022-10-22T11:36:42;18.10;99.90
27376;DHT22;14844;51.302;6.354;2022-10-22T11:39:32;18.30;99.90
27376;DHT22;14844;51.302;6.354;2022-10-22T11:42:02;18.20;99.90
27376;DHT22;14844;51.302;6.354;2022-10-22T11:44:28;18.20;99.90
27376;DHT22;14844;51.302;6.354;2022-10-22T11:46:56;18.20;99.90
27376;DHT22;14844;51.302;6.354;2022-10-22T11:49:41;18.10;99.90
27376;DHT22;14844;51.302;6.354;2022-10-22T11:52:37;18.20;99.90
27376;DHT22;14844;51.302;6.354;2022-10-22T12:11:38;18.90;99.90
27376;DHT22;14844;51.302;6.354;2022-10-22T12:14:25;19.10;99.90
27376;DHT22;14844;51.302;6.354;2022-10-22T12:17:08;19.10;99.90
27376;DHT22;14844;51.302;6.354;2022-10-22T12:19:41;19.40;99.90
27376;DHT22;14844;51.302;6.354;2022-10-22T12:22:16;19.20;99.90
27376;DHT22;14844;51.302;6.354;2022-10-22T12:24:51;19.20;99.90
27376;DHT22;14844;51.302;6.354;2022-10-22T12:27:20;19.40;99.90
27376;DHT22;14844;51.302;6.354;2022-10-22T12:29:48;19.50;99.90
27376;DHT22;14844;51.302;6.354;2022-10-22T12:32:15;19.40;99.90
27376;DHT22;14844;51.302;6.354;2022-10-22T12:34:46;19.20;99.90
27376;DHT22;14844;51.302;6.354;2022-10-22T12:37:13;19.20;99.90
27376;DHT22;14844;51.302;6.354;2022-10-22T12:39:40;19.20;99.90
27376;DHT22;14844;51.302;6.354;2022-10-22T12:42:11;19.40;99.90
27376;DHT22;14844;51.302;6.354;2022-10-22T12:44:37;19.60;99.90
27376;DHT22;14844;51.302;6.354;2022-10-22T12:47:02;19.80;99.90
27376;DHT22;14844;51.302;6.354;2022-10-22T12:49:42;19.60;99.90
27376;DHT22;14844;51.302;6.354;2022-10-22T12:52:15;19.80;99.90
27376;DHT22;14844;51.302;6.354;2022-10-22T12:54:44;19.90;99.90
27376;DHT22;14844;51.302;6.354;2022-10-22T12:57:13;19.60;99.90
27376;DHT22;14844;51.302;6.354;2022-10-22T12:59:42;19.50;99.90
27376;DHT22;14844;51.302;6.354;2022-10-22T13:02:23;19.30;99.90
27376;DHT22;14844;51.302;6.354;2022-10-22T13:07:41;18.60;99.90
27376;DHT22;14844;51.302;6.354;2022-10-22T13:10:22;18.50;99.90
27376;DHT22;14844;51.302;6.354;2022-10-22T13:12:50;18.60;99.90
27376;DHT22;14844;51.302;6.354;2022-10-22T13:17:46;18.60;99.90
27376;DHT22;14844;51.302;6.354;2022-10-22T13:20:17;18.70;99.90
27376;DHT22;14844;51.302;6.354;2022-10-22T13:22:58;18.60;99.90
27376;DHT22;14844;51.302;6.354;2022-10-22T13:25:29;18.60;99.90
27376;DHT22;14844;51.302;6.354;2022-10-22T13:28:00;18.50;99.90
27376;DHT22;14844;51.302;6.354;2022-10-22T13:30:32;18.40;99.90
27376;DHT22;14844;51.302;6.354;2022-10-22T13:33:03;18.30;99.90
27376;DHT22;14844;51.302;6.354;2022-10-22T13:35:35;18.40;99.90
27376;DHT22;14844;51.302;6.354;2022-10-22T13:38:01;18.40;99.90
27376;DHT22;14844;51.302;6.354;2022-10-22T13:40:27;18.20;99.90
27376;DHT22;14844;51.302;6.354;2022-10-22T13:42:53;18.10;99.90
27376;DHT22;14844;51.302;6.354;2022-10-22T13:45:19;18.20;99.90
27376;DHT22;14844;51.302;6.354;2022-10-22T13:47:48;18.20;99.90
27376;DHT22;14844;51.302;6.354;2022-10-22T13:50:17;18.30;99.90
27376;DHT22;14844;51.302;6.354;2022-10-22T13:52:49;18.50;99.90
27376;DHT22;14844;51.302;6.354;2022-10-22T13:55:18;18.70;99.90
27376;DHT22;14844;51.302;6.354;2022-10-22T13:57:44;18.90;99.90
27376;DHT22;14844;51.302;6.354;2022-10-22T14:00:20;19.10;99.90
27376;DHT22;14844;51.302;6.354;2022-10-22T14:02:47;19.20;99.90
27376;DHT22;14844;51.302;6.354;2022-10-22T14:05:16;19.50;99.90
27376;DHT22;14844;51.302;6.354;2022-10-22T14:07:44;19.50;99.90
27376;DHT22;14844;51.302;6.354;2022-10-22T14:10:23;19.60;99.90
27376;DHT22;14844;51.302;6.354;2022-10-22T14:12:50;19.60;99.90
27376;DHT22;14844;51.302;6.354;2022-10-22T14:15:19;19.80;99.90
27376;DHT22;14844;51.302;6.354;2022-10-22T14:17:48;19.50;99.90
27376;DHT22;14844;51.302;6.354;2022-10-22T14:20:16;19.20;99.90
27376;DHT22;14844;51.302;6.354;2022-10-22T14:22:45;19.20;99.90
27376;DHT22;14844;51.302;6.354;2022-10-22T14:25:19;19.20;99.90
27376;DHT22;14844;51.302;6.354;2022-10-22T14:27:47;19.20;99.90
27376;DHT22;14844;51.302;6.354;2022-10-22T14:30:19;19.20;99.90
27376;DHT22;14844;51.302;6.354;2022-10-22T14:32:45;19.30;99.90
27376;DHT22;14844;51.302;6.354;2022-10-22T14:35:14;19.40;99.90
27376;DHT22;14844;51.302;6.354;2022-10-22T14:37:40;19.20;99.90
27376;DHT22;14844;51.302;6.354;2022-10-22T14:40:07;18.90;99.90
27376;DHT22;14844;51.302;6.354;2022-10-22T14:42:37;18.70;99.90
27376;DHT22;14844;51.302;6.354;2022-10-22T14:45:05;18.60;99.90
27376;DHT22;14844;51.302;6.354;2022-10-22T14:47:31;18.60;99.90
27376;DHT22;14844;51.302;6.354;2022-10-22T14:49:56;18.60;99.90
27376;DHT22;14844;51.302;6.354;2022-10-22T14:52:22;18.70;99.90
27376;DHT22;14844;51.302;6.354;2022-10-22T14:54:47;18.90;99.90
27376;DHT22;14844;51.302;6.354;2022-10-22T14:57:13;18.80;99.90
27376;DHT22;14844;51.302;6.354;2022-10-22T14:59:41;18.90;99.90
27376;DHT22;14844;51.302;6.354;2022-10-22T15:02:12;18.90;99.90
27376;DHT22;14844;51.302;6.354;2022-10-22T15:04:38;19.00;99.90
27376;DHT22;14844;51.302;6.354;2022-10-22T15:07:04;19.00;99.90
27376;DHT22;14844;51.302;6.354;2022-10-22T15:09:30;19.00;99.90
27376;DHT22;14844;51.302;6.354;2022-10-22T15:11:55;18.90;99.90
27376;DHT22;14844;51.302;6.354;2022-10-22T15:14:21;18.80;99.90
27376;DHT22;14844;51.302;6.354;2022-10-22T15:16:47;18.70;99.90
27376;DHT22;14844;51.302;6.354;2022-10-22T15:19:12;18.70;99.90
27376;DHT22;14844;51.302;6.354;2022-10-22T15:21:38;18.60;99.90
27376;DHT22;14844;51.302;6.354;2022-10-22T15:24:04;18.50;99.90
27376;DHT22;14844;51.302;6.354;2022-10-22T15:26:30;18.30;99.90
27376;DHT22;14844;51.302;6.354;2022-10-22T15:28:55;18.10;99.90
27376;DHT22;14844;51.302;6.354;2022-10-22T15:31:45;18.00;99.90
27376;DHT22;14844;51.302;6.354;2022-10-22T15:34:12;17.90;99.90
27376;DHT22;14844;51.302;6.354;2022-10-22T15:36:37;17.70;99.90
27376;DHT22;14844;51.302;6.354;2022-10-22T15:39:08;17.60;99.90
27376;DHT22;14844;51.302;6.354;2022-10-22T15:41:36;17.50;99.90
27376;DHT22;14844;51.302;6.354;2022-10-22T15:44:03;17.40;99.90
27376;DHT22;14844;51.302;6.354;2022-10-22T15:46:30;17.20;99.90
27376;DHT22;14844;51.302;6.354;2022-10-22T15:48:58;17.10;99.90
27376;DHT22;14844;51.302;6.354;2022-10-22T15:51:24;17.00;99.90
27376;DHT22;14844;51.302;6.354;2022-10-22T15:53:51;16.80;99.90
27376;DHT22;14844;51.302;6.354;2022-10-22T15:56:17;16.70;99.90
27376;DHT22;14844;51.302;6.354;2022-10-22T15:58:42;16.60;99.90
27376;DHT22;14844;51.302;6.354;2022-10-22T16:01:10;16.50;99.90
27376;DHT22;14844;51.302;6.354;2022-10-22T16:03:37;16.30;99.90
27376;DHT22;14844;51.302;6.354;2022-10-22T16:06:03;16.20;99.90
27376;DHT22;14844;51.302;6.354;2022-10-22T16:08:29;16.10;99.90
27376;DHT22;14844;51.302;6.354;2022-10-22T16:10:55;15.80;99.90
27376;DHT22;14844;51.302;6.354;2022-10-22T16:13:21;15.70;99.90
27376;DHT22;14844;51.302;6.354;2022-10-22T16:15:49;15.50;99.90
27376;DHT22;14844;51.302;6.354;2022-10-22T16:18:14;15.40;99.90
27376;DHT22;14844;51.302;6.354;2022-10-22T16:20:41;15.20;99.90
27376;DHT22;14844;51.302;6.354;2022-10-22T16:23:07;15.00;99.90
27376;DHT22;14844;51.302;6.354;2022-10-22T16:25:40;14.80;99.90
27376;DHT22;14844;51.302;6.354;2022-10-22T16:28:06;14.60;99.90
27376;DHT22;14844;51.302;6.354;2022-10-22T16:30:37;14.40;99.90
27376;DHT22;14844;51.302;6.354;2022-10-22T16:33:04;14.20;99.90
27376;DHT22;14844;51.302;6.354;2022-10-22T16:35:30;14.10;99.90
27376;DHT22;14844;51.302;6.354;2022-10-22T16:37:56;13.90;99.90
27376;DHT22;14844;51.302;6.354;2022-10-22T16:40:22;13.80;99.90
27376;DHT22;14844;51.302;6.354;2022-10-22T16:42:48;13.60;99.90
27376;DHT22;14844;51.302;6.354;2022-10-22T16:45:14;13.50;99.90
27376;DHT22;14844;51.302;6.354;2022-10-22T16:47:39;13.40;99.90
27376;DHT22;14844;51.302;6.354;2022-10-22T16:50:08;13.30;99.90
27376;DHT22;14844;51.302;6.354;2022-10-22T16:52:33;13.20;99.90
27376;DHT22;14844;51.302;6.354;2022-10-22T16:54:59;13.00;99.90
27376;DHT22;14844;51.302;6.354;2022-10-22T16:57:26;13.00;99.90
27376;DHT22;14844;51.302;6.354;2022-10-22T16:59:51;12.90;99.90
27376;DHT22;14844;51.302;6.354;2022-10-22T17:02:17;12.80;99.90
27376;DHT22;14844;51.302;6.354;2022-10-22T17:04:42;12.70;99.90
27376;DHT22;14844;51.302;6.354;2022-10-22T17:07:08;12.70;99.90
27376;DHT22;14844;51.302;6.354;2022-10-22T17:09:34;12.70;99.90
27376;DHT22;14844;51.302;6.354;2022-10-22T17:11:59;12.70;99.90